Overview Statistics Trail Chart Weather Telemetry Raw packets
 

This is the latest recevied weather packets stored in our database for station/object ED1ZAI-14. If no packets are shown the sender has not sent any weather packets the latest 10 day(s).

<< 11 12 13 14 15 16 17 >>
Time Temp. Humidity Pressure Rain* Wind** Luminosity Snow
1788039258 13.33° C 75% 813.8 hPa - - - -
1788037458 13.33° C 74% 813.8 hPa - - - -
1788035658 13.89° C 72% 813.8 hPa - - - -
1788033858 13.33° C 72% 813.8 hPa - - - -
1788032058 13.33° C 71% 813.6 hPa - - - -
1788030258 13.89° C 66% 813.5 hPa - - - -
1788028458 15° C 56% 813.4 hPa - - - -
1788026660 15.56° C 50% 813.4 hPa - - - -
1788024860 16.67° C 47% 813.4 hPa - - - -
1788023060 17.78° C 43% 813.3 hPa - - - -
1788021260 18.89° C 42% 813.3 hPa - - - -
1788019460 18.89° C 40% 813.4 hPa - - - -
1788017660 19.44° C 42% 813.6 hPa - - - -
1788015860 19.44° C 41% 813.7 hPa - - - -
1788014060 20° C 42% 813.6 hPa - - - -
1788012260 21.11° C 37% 813.8 hPa - - - -
1788010460 20° C 37% 813.9 hPa - - - -
1788008659 21.11° C 39% 814 hPa - - - -
1788006860 18.89° C 43% 813.9 hPa - - - -
1788005059 18.33° C 56% 813.9 hPa - - - -
1788003259 17.78° C 65% 814 hPa - - - -
1788001459 16.11° C 79% 813.8 hPa - - - -
1787999659 15.56° C 84% 813.8 hPa - - - -
1787997859 14.44° C 100% 813.8 hPa - - - -
1787996059 13.33° C 100% 813.7 hPa - - - -

* Rain since midnight (hover to see other rain measurements)
** Current wind speed in m/s (hover to see current wind gust speed)